Mount Union, Ohio
Current Conditions -  °F | °C
As of 9:51 PM on Tuesday 21 Oct 2014 (Local Time) from KCAK Reporting Station
Light Rain Light Rain  
Wind Chill: 41°   Ceiling: 600
Heat Index: 47°   Visibility: 4mi
Dew Point: 44°   Wind: 13mph
Humidity: 90%   Direction: 340°NNW
Pressure: 30.06"   Gusts: 18mph
Location:  40.9181°N, 81.1273°W
Report Text: KCAK 220151Z 34011G16KT 4SM -RA BR OVC006 08/07 A3006 RMK AO2 RAE0053B20E29B50 SLP183 P0000 T00830067 $
Loading
Personal Weather Stations






























Interactive Weather Map
Tropical Storm Tracking
New forecast layout! Learn more

10-Day Weather Forecast

Advertisements
Track Severe Weather on mobile